ZSAM

Xiamen Gaoqi International Airport

Xiamen, China
TAF ZSAM 211511Z 2118/2218 18003MPS 6000 BKN026 TX32/2206Z TN26/2121Z TEMPO 2206/2212 TSRA FEW025CB BKN026
Issued Valid From Valid To
Jun-21 @ 15:11 UTC
(3 hours ago)
Jun-21 @ 18:00 UTC
(10 minutes ago)
Jun-22 @ 18:00 UTC
(in 24 hours)
Jun-21 @ 18:00 to Jun-22 @ 18:00
TAF ZSAM 211511Z 2118/2218 18003MPS 6000 BKN026 TX32/2206Z TN26/2121Z
Wind Visibility Clouds
180° at 6 knots 6,003 meters
  • Broken at 2,600' AGL
Temporary Jun-22 @ 06:00 to Jun-22 @ 12:00
TEMPO 2206/2212 TSRA FEW025CB BKN026
Clouds Conditions
  • Few at 2,500' AGL
  • Broken at 2,600' AGL
  • Thunderstorm
  • Rain
TAF ZSAM 211511Z 2118/2218 18003MPS 6000 BKN026 TX32/2206Z TN26/2121Z TEMPO 2206/2212 TSRA FEW025CB BKN026
Issued Jun-21 @ 15:11 UTC
(3 hours ago)
Valid From Jun-21 @ 18:00 UTC
(10 minutes ago)
Valid To Jun-22 @ 18:00 UTC
(in 24 hours)
Jun-21 @ 18:00 - Jun-22 @ 18:00
Wind Visibility
180° at 6 knots 6,003 meters
Clouds
  • Broken at 2,600' AGL
Temporary Jun-22 @ 06:00 - Jun-22 @ 12:00
Clouds
  • Few at 2,500' AGL
  • Broken at 2,600' AGL
Conditions
  • Thunderstorm
  • Rain